Jamestown, ND (58401)

2:46 AM CST on February 08, 2016 (GMT -0600)
Leapaldt Addition | | Change Station
CLOSE
Current Station
Personal Weather Station
Location: Jamestown, ND
Elevation: 1486 ft
Nearby Weather Stations

Elev 1486 ft 46.93 °N, 98.69 °W | Updated 11 minutes ago

Overcast
Overcast
19.6 °F
Feels Like 7 °F
N
12.5
Wind Variable Wind from NNW

Today
High -- | Low -- °F
--% Chance of Precip.
Yesterday
High -- | Low -- °F
Precip. -- in
Pressure 30.14 in
Visibility 10.0 miles
Clouds Overcast 2700 ft
Windchill 7 °F
Dew Point 15 °F
Humidity 83%
Rainfall 0.00 in
Snow Depth Not available.
7:50 AM 5:48 PM
Waning Crescent, 0% visible
METAR KJMS 080756Z AUTO 35019G27KT 10SM OVC027 M07/M11 A3007 RMK AO2 PK WND 35034/0721 SNB20E36 SLP207 P0000 T10671106
Pressure 30.14 in
Visibility 10.0 miles
Clouds Overcast 2700 ft
Windchill 7 °F
Dew Point 15 °F
Humidity 83%
Rainfall 0.00 in
Snow Depth Not available.
7:50 AM 5:48 PM
Waning Crescent, 0% visible
METAR KJMS 080756Z AUTO 35019G27KT 10SM OVC027 M07/M11 A3007 RMK AO2 PK WND 35034/0721 SNB20E36 SLP207 P0000 T10671106

10-Day Weather Forecast

Almanac

Astronomy

Feb. 08, 2016 Rise Set
Actual Time
Civil Twilight
Nautical Twilight
Astronomical Twilight
Moon
Length of Visible Light
Length of Day
Tomorrow will be .
, % of the Moon is Illuminated

Today's Extremes

State Highs State Lows

Community

WunderPhotos

Upload Photos

1,891,412 photos uploaded!

WunderBlog® & News

Nearby

Air Quality

  Air Quality AQ Index Pollutant
Not available.

Snow Depth

Station Depth Elevation

Earthquake Activity

City Distance Mag. Time & Date
Minimum magnitude displayed is 2.5.

Coastal Water Temperatures

Place Temperature

Stations

Nearby Weather Stations

Station Location Temp. Windchill Dew Point Humidity Wind Precip. Elev Updated Type
                   

Watches & Warnings

Wind Advisory
Issued: 12:25 AM CST Feb. 8, 2016 – National Weather Service

... Wind Advisory remains in effect until 4 PM CST this
afternoon...

* timing... until 4 PM CST Monday. The strongest winds will be
early Monday morning.

* Winds... northwest winds gusting up to 50 mph.

* Impacts... travel will be difficult... especially for those
driving high profile vehicles.

Precautionary/preparedness actions...

Use extra caution and hang on to the wheel if you are driving.



KS/waa